createdAt,value
2022-12-04T00:02:10.698Z,3.00
2022-12-04T00:04:38.779Z,2.90
2022-12-04T00:07:06.881Z,2.80
2022-12-04T00:09:35.383Z,2.80
2022-12-04T00:12:03.452Z,2.80
2022-12-04T00:14:33.004Z,2.90
2022-12-04T00:17:00.985Z,2.90
2022-12-04T00:19:29.005Z,2.80
2022-12-04T00:21:56.956Z,2.80
2022-12-04T00:24:25.094Z,2.80
2022-12-04T00:26:53.069Z,2.80
2022-12-04T00:29:21.152Z,2.80
2022-12-04T00:31:51.089Z,2.80
2022-12-04T00:34:19.419Z,2.80
2022-12-04T00:36:47.498Z,2.80
2022-12-04T00:39:15.679Z,2.80
2022-12-04T00:41:43.723Z,2.90
2022-12-04T00:44:11.818Z,2.90
2022-12-04T00:46:39.916Z,2.80
2022-12-04T00:49:09.352Z,2.80
2022-12-04T00:51:37.351Z,2.80
2022-12-04T00:54:05.555Z,2.80
2022-12-04T00:56:33.796Z,2.80
2022-12-04T00:59:02.379Z,2.80
2022-12-04T01:01:31.297Z,2.80
2022-12-04T01:03:59.286Z,2.70
2022-12-04T01:06:30.799Z,2.70
2022-12-04T01:08:59.445Z,2.80
2022-12-04T01:11:28.794Z,2.80
2022-12-04T01:13:57.431Z,2.80
2022-12-04T01:16:28.795Z,2.90
2022-12-04T01:18:57.303Z,2.90
2022-12-04T01:21:27.903Z,2.80
2022-12-04T01:23:55.809Z,2.80
2022-12-04T01:26:23.895Z,2.80
2022-12-04T01:28:51.927Z,2.80
2022-12-04T01:31:21.986Z,2.80
2022-12-04T01:33:50.597Z,2.80
2022-12-04T01:36:21.168Z,2.80
2022-12-04T01:38:50.949Z,2.70
2022-12-04T01:41:24.899Z,2.70
2022-12-04T01:44:14.591Z,2.70
2022-12-04T01:46:43.683Z,2.70
2022-12-04T01:49:15.650Z,2.80
2022-12-04T01:51:47.387Z,2.70
2022-12-04T01:54:21.832Z,2.70
2022-12-04T01:56:53.525Z,2.80
2022-12-04T01:59:28.161Z,2.80
2022-12-04T02:02:01.792Z,2.70
2022-12-04T02:04:30.342Z,2.70
2022-12-04T02:06:58.382Z,2.70
2022-12-04T02:09:28.442Z,2.70
2022-12-04T02:12:04.465Z,2.70
2022-12-04T02:14:39.318Z,2.70
2022-12-04T02:17:18.076Z,2.70
2022-12-04T02:20:15.118Z,2.70
2022-12-04T02:22:58.540Z,2.70
2022-12-04T02:25:35.844Z,2.70
2022-12-04T02:28:12.042Z,2.70
2022-12-04T02:30:42.475Z,2.70
2022-12-04T02:33:18.682Z,2.70
2022-12-04T02:35:50.435Z,2.60
2022-12-04T02:38:24.799Z,2.60
2022-12-04T02:40:58.208Z,2.70
2022-12-04T02:43:33.077Z,2.70
2022-12-04T02:46:04.718Z,2.70
2022-12-04T02:48:36.966Z,2.60
2022-12-04T02:51:07.888Z,2.60
2022-12-04T02:53:40.087Z,2.60
2022-12-04T02:56:12.931Z,2.60
2022-12-04T02:58:48.387Z,2.60
2022-12-04T03:01:23.897Z,2.60
2022-12-04T03:03:57.223Z,2.60
2022-12-04T03:06:27.336Z,2.60
2022-12-04T03:09:01.457Z,2.60
2022-12-04T03:11:33.318Z,2.60
2022-12-04T03:14:09.374Z,2.60
2022-12-04T03:16:40.666Z,2.60
2022-12-04T03:19:11.808Z,2.60
2022-12-04T03:21:45.152Z,2.60
2022-12-04T03:24:17.148Z,2.60
2022-12-04T03:26:50.204Z,2.60
2022-12-04T03:29:24.518Z,2.60
2022-12-04T03:32:00.119Z,2.60
2022-12-04T03:34:34.895Z,2.60
2022-12-04T03:37:07.923Z,2.60
2022-12-04T03:39:39.826Z,2.60
2022-12-04T03:42:14.883Z,2.60
2022-12-04T03:44:47.330Z,2.50
2022-12-04T03:47:19.735Z,2.50
2022-12-04T03:49:54.356Z,2.60
2022-12-04T03:52:28.106Z,2.50
2022-12-04T03:55:02.743Z,2.50
2022-12-04T03:57:35.339Z,2.50
2022-12-04T04:00:08.375Z,2.50
2022-12-04T04:02:41.150Z,2.50
2022-12-04T04:05:12.182Z,2.50
2022-12-04T04:07:45.407Z,2.60
2022-12-04T04:10:17.588Z,2.60
2022-12-04T04:13:10.606Z,2.60
2022-12-04T04:16:02.299Z,2.60
2022-12-04T04:18:50.736Z,2.50
2022-12-04T04:21:38.856Z,2.50
2022-12-04T04:24:17.857Z,2.50
2022-12-04T04:26:47.917Z,2.50
2022-12-04T04:29:15.824Z,2.50
2022-12-04T04:31:52.658Z,2.50
2022-12-04T04:34:27.760Z,2.60
2022-12-04T04:36:59.807Z,2.60
2022-12-04T04:39:32.844Z,2.50
2022-12-04T04:42:05.924Z,2.60
2022-12-04T04:44:42.375Z,2.60
2022-12-04T04:47:17.933Z,2.60
2022-12-04T04:49:48.527Z,2.60
2022-12-04T04:52:20.276Z,2.50
2022-12-04T04:54:48.839Z,2.60
2022-12-04T04:57:27.020Z,2.50
2022-12-04T04:59:55.322Z,2.60
2022-12-04T05:02:27.220Z,2.50
2022-12-04T05:04:56.006Z,2.50
2022-12-04T05:07:24.020Z,2.50
2022-12-04T05:09:53.651Z,2.50
2022-12-04T05:12:21.875Z,2.50
2022-12-04T05:14:50.391Z,2.50
2022-12-04T05:17:19.164Z,2.50
2022-12-04T05:19:53.817Z,2.50
2022-12-04T05:22:25.047Z,2.50
2022-12-04T05:24:53.266Z,2.50
2022-12-04T05:27:22.347Z,2.50
2022-12-04T05:29:53.062Z,2.50
2022-12-04T05:32:22.395Z,2.50
2022-12-04T05:34:52.357Z,2.40
2022-12-04T05:37:21.165Z,2.40
2022-12-04T05:39:50.491Z,2.40
2022-12-04T05:42:18.577Z,2.40
2022-12-04T05:44:46.590Z,2.50
2022-12-04T05:47:14.663Z,2.40
2022-12-04T05:49:42.724Z,2.40
2022-12-04T05:52:12.209Z,2.50
2022-12-04T05:54:40.469Z,2.40
2022-12-04T05:57:08.823Z,2.30
2022-12-04T05:59:39.789Z,2.40
2022-12-04T06:02:07.750Z,2.30
2022-12-04T06:04:37.759Z,2.30
2022-12-04T06:07:05.827Z,2.30
2022-12-04T06:09:35.421Z,2.30
2022-12-04T06:12:06.842Z,2.30
2022-12-04T06:14:39.476Z,2.30
2022-12-04T06:17:08.719Z,2.30
2022-12-04T06:19:36.701Z,2.40
2022-12-04T06:22:05.765Z,2.30
2022-12-04T06:24:35.199Z,2.20
2022-12-04T06:29:51.338Z,2.20
2022-12-04T06:32:21.989Z,2.20
2022-12-04T06:34:54.069Z,2.20
2022-12-04T06:37:23.473Z,2.20
2022-12-04T06:40:14.270Z,2.20
2022-12-04T06:43:09.039Z,2.20
2022-12-04T06:45:38.367Z,2.20
2022-12-04T06:48:07.805Z,2.20
2022-12-04T06:50:36.783Z,2.20
2022-12-04T06:53:08.470Z,2.20
2022-12-04T06:56:01.513Z,2.10
2022-12-04T06:58:51.116Z,2.10
2022-12-04T07:01:33.467Z,2.20
2022-12-04T07:04:04.356Z,2.20
2022-12-04T07:06:34.320Z,2.30
2022-12-04T07:09:04.849Z,2.40
2022-12-04T07:11:35.471Z,2.40
2022-12-04T07:14:04.406Z,2.40
2022-12-04T07:16:38.384Z,2.30
2022-12-04T07:19:08.785Z,2.30
2022-12-04T07:21:36.769Z,2.30
2022-12-04T07:24:06.507Z,2.30
2022-12-04T07:26:35.897Z,2.30
2022-12-04T07:29:04.370Z,2.30
2022-12-04T07:31:32.500Z,2.30
2022-12-04T07:34:00.614Z,2.30
2022-12-04T07:36:29.050Z,2.20
2022-12-04T07:38:57.588Z,2.30
2022-12-04T07:41:26.288Z,2.30
2022-12-04T07:43:56.232Z,2.30
2022-12-04T07:46:28.626Z,2.30
2022-12-04T07:48:57.060Z,2.30
2022-12-04T07:51:26.656Z,2.30
2022-12-04T07:54:02.056Z,2.30
2022-12-04T07:56:31.621Z,2.50
2022-12-04T07:59:01.162Z,2.30
2022-12-04T08:01:29.402Z,2.30
2022-12-04T08:03:59.913Z,2.30
2022-12-04T08:06:30.148Z,2.30
2022-12-04T08:08:58.435Z,2.30
2022-12-04T08:11:28.937Z,2.30
2022-12-04T08:13:58.012Z,2.40
2022-12-04T08:16:28.709Z,2.40
2022-12-04T08:18:57.300Z,2.40
2022-12-04T08:21:27.452Z,2.40
2022-12-04T08:23:57.121Z,2.50
2022-12-04T08:26:27.014Z,2.60
2022-12-04T08:28:55.674Z,2.60
2022-12-04T08:31:26.844Z,2.50
2022-12-04T08:33:58.349Z,2.50
2022-12-04T08:36:27.235Z,2.60
2022-12-04T08:38:55.637Z,2.50
2022-12-04T08:41:26.154Z,2.60
2022-12-04T08:43:55.766Z,2.60
2022-12-04T08:46:25.432Z,2.60
2022-12-04T08:48:54.037Z,2.60
2022-12-04T08:51:25.599Z,2.60
2022-12-04T08:53:57.420Z,2.60
2022-12-04T08:56:27.268Z,2.60
2022-12-04T08:58:57.283Z,2.60
2022-12-04T09:01:26.652Z,2.60
2022-12-04T09:03:54.946Z,2.60
2022-12-04T09:06:24.849Z,2.60
2022-12-04T09:08:54.231Z,2.50
2022-12-04T09:11:24.377Z,2.50
2022-12-04T09:13:52.892Z,2.50
2022-12-04T09:16:23.705Z,2.50
2022-12-04T09:18:52.456Z,2.50
2022-12-04T09:21:22.100Z,2.50
2022-12-04T09:23:51.443Z,2.50
2022-12-04T09:26:22.841Z,2.50
2022-12-04T09:28:51.274Z,2.50
2022-12-04T09:31:20.063Z,2.60
2022-12-04T09:33:48.561Z,2.50
2022-12-04T09:36:17.074Z,2.60
2022-12-04T09:38:46.282Z,2.60
2022-12-04T09:41:27.353Z,2.70
2022-12-04T09:43:59.609Z,2.70
2022-12-04T09:46:31.159Z,2.70
2022-12-04T09:49:03.137Z,2.80
2022-12-04T09:51:32.974Z,2.80
2022-12-04T09:54:05.628Z,2.80
2022-12-04T09:56:35.701Z,2.70
2022-12-04T09:59:12.121Z,2.70
2022-12-04T10:01:45.911Z,2.70
2022-12-04T10:04:14.706Z,2.70
2022-12-04T10:06:48.799Z,2.70
2022-12-04T10:09:23.606Z,2.80
2022-12-04T10:12:03.802Z,2.80
2022-12-04T10:14:47.525Z,2.80
2022-12-04T10:17:32.693Z,2.90
2022-12-04T10:20:09.792Z,2.80
2022-12-04T10:22:50.323Z,2.90
2022-12-04T10:25:23.869Z,2.90
2022-12-04T10:27:57.495Z,2.90
2022-12-04T10:30:28.487Z,2.80
2022-12-04T10:33:00.839Z,2.90
2022-12-04T10:35:31.452Z,2.80
2022-12-04T10:38:03.564Z,2.70
2022-12-04T10:40:36.583Z,2.70
2022-12-04T10:43:16.009Z,2.70
2022-12-04T10:45:44.461Z,2.70
2022-12-04T10:48:21.255Z,2.60
2022-12-04T10:50:49.255Z,2.60
2022-12-04T10:53:17.766Z,2.60
2022-12-04T10:55:45.939Z,2.70
2022-12-04T10:58:20.488Z,2.70
2022-12-04T11:01:03.339Z,2.70
2022-12-04T11:03:33.058Z,2.80
2022-12-04T11:06:03.466Z,2.80
2022-12-04T11:08:36.778Z,2.90
2022-12-04T11:11:07.712Z,2.90
2022-12-04T11:13:37.104Z,3.00
2022-12-04T11:16:06.614Z,3.00
2022-12-04T11:18:36.748Z,3.10
2022-12-04T11:21:08.431Z,3.20
2022-12-04T11:23:43.836Z,3.20
2022-12-04T11:26:12.964Z,3.20
2022-12-04T11:28:48.887Z,3.10
2022-12-04T11:31:21.119Z,3.10
2022-12-04T11:33:52.298Z,3.10
2022-12-04T11:36:23.746Z,3.20
2022-12-04T11:38:54.244Z,3.20
2022-12-04T11:41:27.551Z,3.20
2022-12-04T11:44:00.279Z,3.30
2022-12-04T11:46:31.664Z,3.30
2022-12-04T11:49:00.414Z,3.20
2022-12-04T11:51:47.387Z,3.20
2022-12-04T11:54:27.676Z,3.20
2022-12-04T11:57:06.456Z,3.20
2022-12-04T11:59:50.003Z,3.20
2022-12-04T12:02:36.163Z,3.20
2022-12-04T12:05:18.617Z,3.20
2022-12-04T12:08:00.697Z,3.20
2022-12-04T12:10:38.866Z,3.30
2022-12-04T12:13:23.799Z,3.20
2022-12-04T12:16:02.038Z,3.20
2022-12-04T12:18:48.013Z,3.20
2022-12-04T12:21:23.415Z,3.20
2022-12-04T12:24:05.492Z,3.30
2022-12-04T12:26:43.101Z,3.30
2022-12-04T12:29:29.563Z,3.30
2022-12-04T12:32:12.279Z,3.30
2022-12-04T12:34:43.059Z,3.30
2022-12-04T12:37:24.751Z,3.30
2022-12-04T12:40:00.485Z,3.30
2022-12-04T12:42:34.741Z,3.30
2022-12-04T12:45:08.555Z,3.30
2022-12-04T12:47:42.292Z,3.30
2022-12-04T12:50:17.354Z,3.30
2022-12-04T12:52:52.646Z,3.30
2022-12-04T12:55:24.263Z,3.30
2022-12-04T12:58:01.587Z,3.30
2022-12-04T13:00:33.117Z,3.40
2022-12-04T13:03:06.737Z,3.40
2022-12-04T13:05:40.251Z,3.40
2022-12-04T13:08:22.591Z,3.40
2022-12-04T13:10:59.397Z,3.40
2022-12-04T13:13:31.163Z,3.50
2022-12-04T13:16:05.344Z,3.40
2022-12-04T13:18:44.743Z,3.40
2022-12-04T13:21:29.645Z,3.50
2022-12-04T13:24:18.192Z,3.40
2022-12-04T13:26:53.554Z,3.50
2022-12-04T13:29:38.925Z,3.40
2022-12-04T13:32:27.182Z,3.50
2022-12-04T13:35:05.391Z,3.50
2022-12-04T13:37:48.172Z,3.50
2022-12-04T13:40:30.459Z,3.50
2022-12-04T13:43:20.759Z,3.50
2022-12-04T13:45:51.976Z,3.40
2022-12-04T13:48:29.937Z,3.30
2022-12-04T13:51:22.401Z,3.40
2022-12-04T13:54:02.498Z,3.40
2022-12-04T13:56:32.267Z,3.30
2022-12-04T13:59:02.988Z,3.40
2022-12-04T14:01:38.771Z,3.40
2022-12-04T14:04:07.454Z,3.40
2022-12-04T14:06:40.239Z,3.40
2022-12-04T14:09:19.567Z,3.40
2022-12-04T14:11:52.129Z,3.30
2022-12-04T14:14:28.092Z,3.30
2022-12-04T14:16:59.869Z,3.30
2022-12-04T14:19:32.475Z,3.30
2022-12-04T14:22:02.673Z,3.30
2022-12-04T14:24:35.020Z,3.20
2022-12-04T14:27:11.675Z,3.20
2022-12-04T14:29:48.688Z,3.20
2022-12-04T14:32:18.882Z,3.20
2022-12-04T14:34:48.536Z,3.20
2022-12-04T14:37:26.529Z,3.20
2022-12-04T14:39:54.816Z,3.20
2022-12-04T14:42:26.593Z,3.20
2022-12-04T14:44:58.198Z,3.20
2022-12-04T14:47:40.995Z,3.20
2022-12-04T14:50:30.786Z,3.20
2022-12-04T14:53:06.919Z,3.10
2022-12-04T14:55:42.143Z,3.10
2022-12-04T14:58:34.589Z,3.10
2022-12-04T15:01:04.777Z,3.10
2022-12-04T15:03:36.961Z,3.10
2022-12-04T15:06:07.972Z,3.10
2022-12-04T15:08:50.955Z,3.10
2022-12-04T15:11:38.724Z,3.10
2022-12-04T15:14:13.922Z,3.00
2022-12-04T15:16:42.079Z,3.00
2022-12-04T15:19:17.894Z,3.10
2022-12-04T15:21:46.354Z,3.10
2022-12-04T15:24:23.323Z,3.00
2022-12-04T15:26:53.418Z,3.00
2022-12-04T15:29:24.514Z,3.00
2022-12-04T15:31:56.941Z,3.00
2022-12-04T15:34:31.183Z,3.00
2022-12-04T15:37:07.457Z,3.00
2022-12-04T15:39:38.139Z,3.10
2022-12-04T15:42:08.294Z,3.00
2022-12-04T15:44:36.832Z,3.00
2022-12-04T15:47:17.724Z,3.30
2022-12-04T15:49:45.688Z,3.00
2022-12-04T15:52:17.087Z,3.00
2022-12-04T15:54:51.658Z,3.00
2022-12-04T15:57:27.404Z,3.00
2022-12-04T15:59:56.510Z,2.90
2022-12-04T16:02:26.907Z,2.90
2022-12-04T16:04:54.846Z,2.90
2022-12-04T16:07:25.463Z,2.90
2022-12-04T16:10:03.622Z,3.00
2022-12-04T16:12:33.174Z,3.00
2022-12-04T16:15:01.293Z,3.00
2022-12-04T16:17:32.552Z,3.00
2022-12-04T16:20:01.382Z,3.00
2022-12-04T16:22:31.352Z,2.90
2022-12-04T16:25:00.938Z,2.90
2022-12-04T16:27:29.517Z,2.80
2022-12-04T16:29:57.525Z,2.80
2022-12-04T16:32:29.847Z,2.90
2022-12-04T16:34:58.344Z,2.90
2022-12-04T16:37:28.601Z,2.80
2022-12-04T16:39:56.665Z,2.80
2022-12-04T16:42:32.953Z,2.80
2022-12-04T16:45:00.959Z,2.80
2022-12-04T16:47:29.169Z,2.80
2022-12-04T16:49:57.137Z,2.80
2022-12-04T16:52:25.033Z,2.80
2022-12-04T16:54:52.923Z,2.80
2022-12-04T16:57:20.932Z,2.80
2022-12-04T16:59:50.357Z,2.80
2022-12-04T17:02:25.128Z,2.80
2022-12-04T17:04:57.514Z,2.70
2022-12-04T17:07:26.556Z,2.80
2022-12-04T17:09:54.826Z,2.80
2022-12-04T17:12:22.870Z,2.80
2022-12-04T17:14:52.342Z,2.80
2022-12-04T17:17:20.792Z,2.70
2022-12-04T17:19:48.849Z,2.70
2022-12-04T17:22:20.936Z,2.70
2022-12-04T17:24:54.432Z,2.70
2022-12-04T17:27:24.770Z,2.60
2022-12-04T17:29:54.972Z,2.60
2022-12-04T17:32:23.016Z,2.60
2022-12-04T17:34:53.474Z,2.60
2022-12-04T17:37:22.334Z,2.50
2022-12-04T17:39:50.391Z,2.50
2022-12-04T17:42:18.376Z,2.60
2022-12-04T17:44:46.636Z,2.50
2022-12-04T17:47:16.358Z,2.50
2022-12-04T17:49:44.676Z,2.50
2022-12-04T17:52:12.598Z,2.50
2022-12-04T17:54:40.536Z,2.50
2022-12-04T17:57:08.471Z,2.50
2022-12-04T17:59:36.539Z,2.50
2022-12-04T18:02:04.554Z,2.50
2022-12-04T18:04:33.976Z,2.50
2022-12-04T18:07:01.944Z,2.50
2022-12-04T18:09:31.529Z,2.40
2022-12-04T18:12:01.563Z,2.50
2022-12-04T18:14:30.858Z,2.40
2022-12-04T18:16:59.941Z,2.40
2022-12-04T18:19:29.898Z,2.40
2022-12-04T18:21:59.887Z,2.40
2022-12-04T18:24:28.434Z,2.40
2022-12-04T18:26:56.298Z,2.30
2022-12-04T18:29:26.569Z,2.30
2022-12-04T18:31:54.863Z,2.20
2022-12-04T18:34:23.014Z,2.20
2022-12-04T18:36:51.461Z,2.20
2022-12-04T18:39:22.678Z,2.20
2022-12-04T18:41:50.893Z,2.20
2022-12-04T18:44:19.229Z,2.10
2022-12-04T18:46:47.211Z,2.10
2022-12-04T18:49:15.321Z,2.00
2022-12-04T18:51:49.129Z,2.00
2022-12-04T18:54:20.924Z,2.00
2022-12-04T18:56:49.348Z,1.90
2022-12-04T18:59:19.765Z,1.90
2022-12-04T19:01:49.936Z,1.80
2022-12-04T19:04:19.563Z,1.80
2022-12-04T19:06:50.169Z,1.70
2022-12-04T19:09:35.450Z,1.70
2022-12-04T19:12:10.222Z,1.70
2022-12-04T19:14:39.705Z,1.70
2022-12-04T19:17:08.044Z,1.70
2022-12-04T19:19:35.992Z,1.70
2022-12-04T19:22:04.714Z,1.70
2022-12-04T19:24:34.117Z,1.70
2022-12-04T19:27:09.949Z,1.70
2022-12-04T19:29:38.145Z,1.70
2022-12-04T19:32:06.420Z,1.70
2022-12-04T19:34:34.912Z,1.60
2022-12-04T19:37:03.195Z,1.60
2022-12-04T19:39:31.104Z,1.50
2022-12-04T19:42:00.575Z,1.50
2022-12-04T19:47:16.555Z,1.40
2022-12-04T19:49:44.610Z,1.30
2022-12-04T19:52:12.957Z,1.20
2022-12-04T19:54:41.076Z,1.20
2022-12-04T19:57:11.033Z,1.20
2022-12-04T19:59:44.478Z,1.10
2022-12-04T20:02:14.443Z,1.10
2022-12-04T20:04:43.255Z,1.10
2022-12-04T20:07:11.423Z,1.10
2022-12-04T20:09:39.512Z,1.00
2022-12-04T20:12:07.971Z,1.00
2022-12-04T20:14:37.459Z,1.00
2022-12-04T20:17:05.592Z,1.00
2022-12-04T20:19:33.907Z,1.00
2022-12-04T20:22:02.156Z,0.90
2022-12-04T20:24:30.168Z,0.90
2022-12-04T20:27:00.209Z,1.00
2022-12-04T20:29:28.299Z,0.90
2022-12-04T20:31:57.823Z,0.90
2022-12-04T20:34:25.926Z,0.90
2022-12-04T20:36:54.024Z,0.90
2022-12-04T20:39:22.291Z,1.00
2022-12-04T20:41:50.441Z,0.90
2022-12-04T20:44:19.908Z,1.00
2022-12-04T20:46:48.639Z,1.00
2022-12-04T20:49:22.138Z,1.00
2022-12-04T20:51:51.703Z,1.00
2022-12-04T20:54:21.657Z,1.00
2022-12-04T20:56:52.101Z,1.00
2022-12-04T20:59:21.681Z,1.00
2022-12-04T21:01:51.419Z,1.00
2022-12-04T21:04:21.496Z,1.00
2022-12-04T21:06:50.356Z,1.00
2022-12-04T21:09:21.132Z,1.00
2022-12-04T21:11:51.600Z,1.00
2022-12-04T21:14:39.660Z,1.00
2022-12-04T21:17:09.680Z,1.00
2022-12-04T21:19:39.471Z,1.00
2022-12-04T21:22:07.553Z,1.00
2022-12-04T21:24:38.852Z,1.00
2022-12-04T21:27:09.206Z,1.00
2022-12-04T21:29:37.321Z,1.00
2022-12-04T21:32:06.930Z,1.00
2022-12-04T21:34:35.337Z,1.00
2022-12-04T21:37:04.926Z,1.00
2022-12-04T21:39:33.882Z,0.90
2022-12-04T21:42:19.424Z,0.90
2022-12-04T21:44:47.755Z,0.90
2022-12-04T21:47:15.894Z,0.90
2022-12-04T21:49:43.936Z,0.90
2022-12-04T21:52:15.070Z,1.00
2022-12-04T21:54:43.379Z,0.90
2022-12-04T21:57:11.967Z,1.00
2022-12-04T21:59:40.178Z,1.00
2022-12-04T22:02:08.731Z,1.10
2022-12-04T22:04:36.829Z,1.10
2022-12-04T22:07:05.009Z,1.20
2022-12-04T22:09:34.642Z,1.20
2022-12-04T22:12:14.633Z,1.30
2022-12-04T22:14:51.155Z,1.30
2022-12-04T22:17:19.309Z,1.20
2022-12-04T22:19:47.404Z,1.30
2022-12-04T22:22:15.406Z,1.30
2022-12-04T22:24:44.950Z,1.30
2022-12-04T22:27:14.957Z,1.30
2022-12-04T22:29:51.280Z,1.30
2022-12-04T22:32:19.837Z,1.30
2022-12-04T22:34:48.919Z,1.30
2022-12-04T22:37:17.335Z,1.40
2022-12-04T22:39:47.023Z,1.40
2022-12-04T22:42:15.198Z,1.40
2022-12-04T22:44:43.233Z,1.40
2022-12-04T22:47:11.513Z,1.40
2022-12-04T22:49:39.777Z,1.40
2022-12-04T22:52:08.102Z,1.50
2022-12-04T22:54:36.237Z,1.50
2022-12-04T22:57:06.041Z,1.50
2022-12-04T22:59:34.161Z,1.50
2022-12-04T23:02:02.219Z,1.50
2022-12-04T23:04:30.705Z,1.50
2022-12-04T23:06:58.668Z,1.50
2022-12-04T23:09:27.948Z,1.50
2022-12-04T23:11:57.176Z,1.50
2022-12-04T23:14:28.917Z,1.60
2022-12-04T23:16:57.288Z,1.60
2022-12-04T23:19:25.460Z,1.60
2022-12-04T23:21:57.029Z,1.60
2022-12-04T23:24:26.026Z,1.60
2022-12-04T23:26:54.056Z,1.60
2022-12-04T23:29:52.700Z,1.60
2022-12-04T23:32:11.596Z,1.70
2022-12-04T23:34:39.961Z,1.60
2022-12-04T23:37:07.905Z,1.60
2022-12-04T23:39:36.065Z,1.60
2022-12-04T23:42:04.507Z,1.60
2022-12-04T23:44:32.467Z,1.60
2022-12-04T23:47:00.535Z,1.60
2022-12-04T23:49:30.124Z,1.60
2022-12-04T23:51:58.158Z,1.60
2022-12-04T23:54:27.294Z,1.60
2022-12-04T23:56:55.275Z,1.60
2022-12-04T23:59:23.188Z,1.60
